createdAt,value
2023-03-06T00:02:57.003Z,324.67
2023-03-06T00:06:04.189Z,176.22
2023-03-06T00:09:10.754Z,177.65
2023-03-06T00:12:17.526Z,254.87
2023-03-06T00:15:24.255Z,203.49
2023-03-06T00:18:33.672Z,221.61
2023-03-06T00:21:39.664Z,240.69
2023-03-06T00:24:47.317Z,254.31
2023-03-06T00:27:53.937Z,422.39
2023-03-06T00:31:01.423Z,293.31
2023-03-06T00:34:11.750Z,217.83
2023-03-06T00:37:19.325Z,217.04
2023-03-06T00:40:25.564Z,219.56
2023-03-06T00:43:33.025Z,223.98
2023-03-06T00:46:39.379Z,221.44
2023-03-06T00:49:48.735Z,213.80
2023-03-06T00:52:54.609Z,203.25
2023-03-06T00:56:01.263Z,192.35
2023-03-06T00:59:08.674Z,203.27
2023-03-06T01:02:15.612Z,209.28
2023-03-06T01:05:24.979Z,229.19
2023-03-06T01:08:31.704Z,242.88
2023-03-06T01:11:37.474Z,257.16
2023-03-06T01:14:44.182Z,262.48
2023-03-06T01:17:50.199Z,258.58
2023-03-06T01:20:59.369Z,259.08
2023-03-06T01:24:05.182Z,273.73
2023-03-06T01:27:12.192Z,285.32
2023-03-06T01:30:18.578Z,313.48
2023-03-06T01:33:25.467Z,328.23
2023-03-06T01:36:33.945Z,311.34
2023-03-06T01:39:42.488Z,308.87
2023-03-06T01:42:48.343Z,310.28
2023-03-06T01:46:42.395Z,292.71
2023-03-06T01:49:48.261Z,289.16
2023-03-06T01:53:03.985Z,279.65
2023-03-06T01:56:11.171Z,279.75
2023-03-06T01:59:19.479Z,295.06
2023-03-06T02:02:25.966Z,320.48
2023-03-06T02:05:32.848Z,334.19
2023-03-06T02:08:43.107Z,337.77
2023-03-06T02:11:49.833Z,340.81
2023-03-06T02:14:56.783Z,312.60
2023-03-06T02:18:04.176Z,298.45
2023-03-06T02:21:13.171Z,290.17
2023-03-06T02:24:40.522Z,325.85
2023-03-06T02:27:49.241Z,303.59
2023-03-06T02:30:59.940Z,253.97
2023-03-06T02:34:31.202Z,243.09
2023-03-06T02:37:37.879Z,239.48
2023-03-06T02:40:49.978Z,233.95
2023-03-06T02:43:59.361Z,240.97
2023-03-06T02:47:05.230Z,243.27
2023-03-06T02:50:13.647Z,230.97
2023-03-06T02:53:22.541Z,231.59
2023-03-06T02:56:29.133Z,235.44
2023-03-06T02:59:38.775Z,233.93
2023-03-06T03:02:47.057Z,233.08
2023-03-06T03:05:52.949Z,239.28
2023-03-06T03:09:04.070Z,246.77
2023-03-06T03:12:11.365Z,246.16
2023-03-06T03:15:22.124Z,278.34
2023-03-06T03:18:27.893Z,283.15
2023-03-06T03:21:34.755Z,275.15
2023-03-06T03:24:40.641Z,243.45
2023-03-06T03:27:47.445Z,234.15
2023-03-06T03:30:55.978Z,242.87
2023-03-06T03:34:04.844Z,245.34
2023-03-06T03:37:14.169Z,262.14
2023-03-06T03:40:22.696Z,258.03
2023-03-06T03:43:29.988Z,254.01
2023-03-06T03:46:41.371Z,264.86
2023-03-06T03:49:52.152Z,252.03
2023-03-06T03:53:00.225Z,242.38
2023-03-06T03:56:06.837Z,231.64
2023-03-06T03:59:18.819Z,228.12
2023-03-06T04:02:38.148Z,218.41
2023-03-06T04:05:54.107Z,213.28
2023-03-06T04:09:00.434Z,214.12
2023-03-06T04:12:08.960Z,210.61
2023-03-06T04:15:16.302Z,207.76
2023-03-06T04:18:27.487Z,233.14
2023-03-06T04:21:37.900Z,249.18
2023-03-06T04:24:45.785Z,235.22
2023-03-06T04:27:52.361Z,222.72
2023-03-06T04:30:59.135Z,243.48
2023-03-06T04:34:07.873Z,295.84
2023-03-06T04:37:24.283Z,243.89
2023-03-06T04:40:34.805Z,232.74
2023-03-06T04:43:41.807Z,231.20
2023-03-06T04:46:47.610Z,253.18
2023-03-06T04:49:56.964Z,269.23
2023-03-06T04:53:04.929Z,276.98
2023-03-06T04:56:12.070Z,259.79
2023-03-06T04:59:17.841Z,231.16
2023-03-06T05:02:24.862Z,214.75
2023-03-06T05:05:33.983Z,216.70
2023-03-06T05:08:40.544Z,218.88
2023-03-06T05:11:46.312Z,219.98
2023-03-06T05:14:52.925Z,187.86
2023-03-06T05:17:58.700Z,180.07
2023-03-06T05:21:09.303Z,181.37
2023-03-06T05:24:15.206Z,187.13
2023-03-06T05:27:21.893Z,177.50
2023-03-06T05:30:28.146Z,204.07
2023-03-06T05:33:35.516Z,218.54
2023-03-06T05:36:44.635Z,237.10
2023-03-06T05:39:51.306Z,231.67
2023-03-06T05:42:57.071Z,233.08
2023-03-06T05:46:05.725Z,230.56
2023-03-06T05:49:11.848Z,233.62
2023-03-06T05:52:21.494Z,225.49
2023-03-06T05:55:29.801Z,199.71
2023-03-06T05:58:38.022Z,191.61
2023-03-06T06:01:43.964Z,190.75
2023-03-06T06:04:51.268Z,188.22
2023-03-06T06:07:59.650Z,186.98
2023-03-06T06:11:12.322Z,183.87
2023-03-06T06:14:31.220Z,183.84
2023-03-06T06:23:26.874Z,197.56
2023-03-06T06:27:10.552Z,198.80
2023-03-06T06:30:48.847Z,199.24
2023-03-06T06:34:25.987Z,213.90
2023-03-06T06:38:05.998Z,217.00
2023-03-06T06:42:11.026Z,221.43
2023-03-06T06:45:34.549Z,214.40
2023-03-06T06:48:41.127Z,234.09
2023-03-06T06:51:47.029Z,245.01
2023-03-06T06:54:53.853Z,233.45
2023-03-06T06:58:02.225Z,239.72
2023-03-06T07:01:10.329Z,233.81
2023-03-06T07:04:16.920Z,218.99
2023-03-06T07:07:25.416Z,203.90
2023-03-06T07:10:32.052Z,188.65
2023-03-06T07:13:41.623Z,178.47
2023-03-06T07:16:47.364Z,175.33
2023-03-06T07:19:53.996Z,169.46
2023-03-06T07:22:59.830Z,171.53
2023-03-06T07:26:07.060Z,166.58
2023-03-06T07:29:15.494Z,166.03
2023-03-06T07:32:22.089Z,171.95
2023-03-06T07:35:29.894Z,169.64
2023-03-06T07:38:36.570Z,180.67
2023-03-06T07:41:42.420Z,183.49
2023-03-06T07:44:51.650Z,177.94
2023-03-06T07:47:57.826Z,165.75
2023-03-06T07:51:10.282Z,166.91
2023-03-06T07:54:16.193Z,178.17
2023-03-06T07:57:22.929Z,175.52
2023-03-06T08:00:31.495Z,181.34
2023-03-06T08:03:41.364Z,184.07
2023-03-06T08:06:47.134Z,160.29
2023-03-06T08:09:53.946Z,165.71
2023-03-06T08:13:00.021Z,157.89
2023-03-06T08:16:10.674Z,145.60
2023-03-06T08:19:16.518Z,136.81
2023-03-06T08:22:23.884Z,133.01
2023-03-06T08:25:29.742Z,136.63
2023-03-06T08:28:37.022Z,140.32
2023-03-06T08:31:48.663Z,138.80
2023-03-06T08:34:56.131Z,127.56
2023-03-06T08:38:02.045Z,121.68
2023-03-06T08:41:08.841Z,114.37
2023-03-06T08:44:15.667Z,116.19
2023-03-06T08:47:24.915Z,120.99
2023-03-06T08:50:30.862Z,118.26
2023-03-06T08:53:43.084Z,114.27
2023-03-06T08:56:49.527Z,116.42
2023-03-06T08:59:56.079Z,114.34
2023-03-06T09:03:04.584Z,105.39
2023-03-06T09:06:11.262Z,112.78
2023-03-06T09:09:18.291Z,110.33
2023-03-06T09:12:24.031Z,99.06
2023-03-06T09:15:30.690Z,99.86
2023-03-06T09:18:39.659Z,104.80
2023-03-06T09:21:46.280Z,106.05
2023-03-06T09:24:52.659Z,96.99
2023-03-06T09:28:10.890Z,94.90
2023-03-06T09:31:21.786Z,100.26
2023-03-06T09:34:31.007Z,97.09
2023-03-06T09:37:37.247Z,104.92
2023-03-06T09:44:21.492Z,107.48
2023-03-06T09:47:50.595Z,110.82
2023-03-06T09:51:13.128Z,113.95
2023-03-06T09:54:24.064Z,105.93
2023-03-06T09:57:36.252Z,106.92
2023-03-06T10:00:54.442Z,96.14
2023-03-06T10:04:27.094Z,95.37
2023-03-06T10:07:49.895Z,101.64
2023-03-06T10:11:05.707Z,112.87
2023-03-06T10:14:26.763Z,107.74
2023-03-06T10:17:41.648Z,102.07
2023-03-06T10:21:16.978Z,89.14
2023-03-06T10:24:56.232Z,90.69
2023-03-06T10:28:18.562Z,86.40
2023-03-06T10:31:29.419Z,81.20
2023-03-06T10:34:44.379Z,75.86
2023-03-06T10:37:51.902Z,83.20
2023-03-06T10:41:19.609Z,70.01
2023-03-06T10:44:29.110Z,68.37
2023-03-06T10:47:37.765Z,74.41
2023-03-06T10:50:43.771Z,68.24
2023-03-06T10:53:58.996Z,62.02
2023-03-06T10:57:32.891Z,61.61
2023-03-06T11:00:39.679Z,63.41
2023-03-06T11:03:45.706Z,64.51
2023-03-06T11:07:08.480Z,66.50
2023-03-06T11:10:23.832Z,63.01
2023-03-06T11:13:36.178Z,67.68
2023-03-06T11:16:42.746Z,54.44
2023-03-06T11:19:49.417Z,58.51
2023-03-06T11:23:03.209Z,53.09
2023-03-06T11:26:32.596Z,61.43
2023-03-06T11:29:46.294Z,67.77
2023-03-06T11:33:02.026Z,68.95
2023-03-06T11:36:21.553Z,78.43
2023-03-06T11:39:39.836Z,67.13
2023-03-06T11:42:59.102Z,67.65
2023-03-06T11:46:22.977Z,53.88
2023-03-06T11:49:41.479Z,47.36
2023-03-06T11:52:56.743Z,71.13
2023-03-06T11:56:23.025Z,70.40
2023-03-06T12:00:24.301Z,58.41
2023-03-06T12:04:16.753Z,65.48
2023-03-06T12:07:35.085Z,62.72
2023-03-06T12:10:52.441Z,56.85
2023-03-06T12:14:25.887Z,54.65
2023-03-06T12:17:57.857Z,45.51
2023-03-06T12:21:23.375Z,39.85
2023-03-06T12:25:21.294Z,37.82
2023-03-06T12:29:05.608Z,45.73
2023-03-06T12:32:30.651Z,47.49
2023-03-06T12:36:17.114Z,47.72
2023-03-06T12:39:45.047Z,43.32
2023-03-06T12:43:40.587Z,35.72
2023-03-06T12:46:54.888Z,41.40
2023-03-06T12:50:10.471Z,45.47
2023-03-06T12:53:30.500Z,52.05
2023-03-06T12:56:38.758Z,43.56
2023-03-06T12:59:48.837Z,47.88
2023-03-06T13:03:21.589Z,50.84
2023-03-06T13:07:05.688Z,53.65
2023-03-06T13:10:25.668Z,59.95
2023-03-06T13:13:37.227Z,62.93
2023-03-06T13:16:43.898Z,67.10
2023-03-06T13:19:50.902Z,66.14
2023-03-06T13:22:57.836Z,60.18
2023-03-06T13:26:12.783Z,66.12
2023-03-06T13:29:55.762Z,72.44
2023-03-06T13:33:01.639Z,121.82
2023-03-06T13:36:27.096Z,154.92
2023-03-06T13:40:29.625Z,74.18
2023-03-06T13:43:45.665Z,73.14
2023-03-06T13:47:02.740Z,68.42
2023-03-06T13:50:38.382Z,68.62
2023-03-06T13:54:30.742Z,73.48
2023-03-06T13:58:04.076Z,80.21
2023-03-06T14:01:43.070Z,82.04
2023-03-06T14:05:00.743Z,81.04
2023-03-06T14:08:17.564Z,90.65
2023-03-06T14:11:25.026Z,97.07
2023-03-06T14:14:45.442Z,83.76
2023-03-06T14:18:03.433Z,115.33
2023-03-06T14:21:15.990Z,64.60
2023-03-06T14:24:34.562Z,53.69
2023-03-06T14:27:56.325Z,67.66
2023-03-06T14:31:08.849Z,78.02
2023-03-06T14:34:26.758Z,85.89
2023-03-06T14:37:35.094Z,73.59
2023-03-06T14:40:48.624Z,83.00
2023-03-06T14:44:10.022Z,114.71
2023-03-06T14:47:28.722Z,138.74
2023-03-06T14:50:41.021Z,135.11
2023-03-06T14:53:49.847Z,95.21
2023-03-06T14:57:06.144Z,82.73
2023-03-06T15:00:24.199Z,84.01
2023-03-06T15:03:45.416Z,91.86
2023-03-06T15:06:56.925Z,80.37
2023-03-06T15:10:10.535Z,82.58
2023-03-06T15:13:26.268Z,84.88
2023-03-06T15:16:34.973Z,87.94
2023-03-06T15:19:43.380Z,97.03
2023-03-06T15:22:54.165Z,118.86
2023-03-06T15:26:03.898Z,111.52
2023-03-06T15:29:26.665Z,158.13
2023-03-06T15:32:42.619Z,120.28
2023-03-06T15:35:58.924Z,140.83
2023-03-06T15:39:41.354Z,173.99
2023-03-06T15:42:50.120Z,129.40
2023-03-06T15:46:03.580Z,190.03
2023-03-06T15:49:20.768Z,190.93
2023-03-06T15:52:27.536Z,240.22
2023-03-06T15:55:36.885Z,191.49
2023-03-06T15:58:44.777Z,177.68
2023-03-06T16:01:53.244Z,198.94
2023-03-06T16:05:02.558Z,204.51
2023-03-06T16:08:11.030Z,205.05
2023-03-06T16:11:35.340Z,186.66
2023-03-06T16:14:50.757Z,220.63
2023-03-06T16:17:56.747Z,319.74
2023-03-06T16:21:03.597Z,254.71
2023-03-06T16:24:09.865Z,289.31
2023-03-06T16:27:25.719Z,299.33
2023-03-06T16:30:35.704Z,276.28
2023-03-06T16:33:42.596Z,386.25
2023-03-06T16:36:50.299Z,547.54
2023-03-06T16:39:56.840Z,1737.57
2023-03-06T16:43:05.278Z,4298.69
2023-03-06T16:46:20.612Z,3648.94
2023-03-06T16:49:27.953Z,3501.37
2023-03-06T16:52:34.871Z,5999.44
2023-03-06T16:55:40.808Z,3644.16
2023-03-06T16:58:52.023Z,1485.54
2023-03-06T17:01:57.855Z,563.54
2023-03-06T17:05:04.644Z,572.09
2023-03-06T17:08:10.670Z,415.55
2023-03-06T17:11:18.118Z,462.41
2023-03-06T17:14:26.591Z,1164.79
2023-03-06T17:17:33.237Z,559.52
2023-03-06T17:20:39.085Z,579.87
2023-03-06T17:23:47.042Z,238.51
2023-03-06T17:26:53.048Z,241.73
2023-03-06T17:30:04.480Z,263.47
2023-03-06T17:33:10.312Z,247.28
2023-03-06T17:36:19.548Z,267.14
2023-03-06T17:39:26.027Z,222.03
2023-03-06T17:42:32.689Z,237.13
2023-03-06T17:45:41.999Z,179.45
2023-03-06T17:48:49.655Z,165.37
2023-03-06T17:51:56.640Z,188.56
2023-03-06T17:55:03.203Z,179.96
2023-03-06T18:01:21.641Z,193.95
2023-03-06T18:04:28.661Z,214.78
2023-03-06T18:07:34.476Z,223.78
2023-03-06T18:10:43.514Z,220.05
2023-03-06T18:13:49.323Z,288.66
2023-03-06T18:16:58.508Z,1502.86
2023-03-06T18:20:04.627Z,2430.09
2023-03-06T18:23:11.903Z,803.52
2023-03-06T18:26:21.007Z,279.94
2023-03-06T18:29:27.711Z,698.42
2023-03-06T18:32:36.212Z,311.72
2023-03-06T18:35:44.214Z,246.04
2023-03-06T18:38:50.190Z,240.92
2023-03-06T18:41:56.896Z,759.08
2023-03-06T18:45:03.236Z,738.71
2023-03-06T18:48:12.575Z,435.39
2023-03-06T18:51:20.376Z,214.91
2023-03-06T18:54:28.748Z,197.35
2023-03-06T18:57:34.595Z,228.28
2023-03-06T19:00:41.218Z,202.94
2023-03-06T19:03:53.133Z,182.35
2023-03-06T19:06:59.845Z,186.37
2023-03-06T19:10:06.149Z,180.92
2023-03-06T19:13:14.225Z,186.23
2023-03-06T19:16:23.266Z,198.92
2023-03-06T19:19:32.721Z,206.90
2023-03-06T19:22:38.601Z,211.15
2023-03-06T19:25:45.437Z,208.02
2023-03-06T19:28:56.570Z,208.61
2023-03-06T19:32:04.428Z,216.07
2023-03-06T19:35:13.850Z,228.92
2023-03-06T19:38:21.026Z,228.53
2023-03-06T19:41:28.157Z,240.33
2023-03-06T19:44:35.692Z,233.51
2023-03-06T19:47:41.682Z,237.04
2023-03-06T19:50:52.464Z,253.98
2023-03-06T19:53:59.817Z,241.26
2023-03-06T19:57:06.870Z,228.00
2023-03-06T20:00:16.228Z,229.07
2023-03-06T20:03:22.863Z,236.46
2023-03-06T20:06:36.809Z,233.13
2023-03-06T20:09:44.025Z,241.32
2023-03-06T20:12:55.144Z,238.43
2023-03-06T20:16:06.292Z,228.63
2023-03-06T20:19:13.924Z,219.87
2023-03-06T20:22:23.598Z,227.94
2023-03-06T20:25:29.989Z,238.49
2023-03-06T20:28:38.077Z,233.17
2023-03-06T20:31:45.627Z,240.62
2023-03-06T20:34:55.369Z,241.03
2023-03-06T20:38:04.151Z,224.72
2023-03-06T20:41:18.573Z,222.84
2023-03-06T20:44:24.405Z,233.88
2023-03-06T20:47:32.883Z,262.87
2023-03-06T20:50:39.022Z,321.38
2023-03-06T20:53:50.838Z,333.65
2023-03-06T20:56:58.235Z,299.25
2023-03-06T21:00:05.412Z,274.83
2023-03-06T21:03:11.355Z,319.67
2023-03-06T21:06:18.907Z,288.33
2023-03-06T21:09:27.268Z,277.13
2023-03-06T21:12:36.429Z,291.64
2023-03-06T21:15:42.702Z,295.48
2023-03-06T21:18:50.277Z,265.67
2023-03-06T21:21:56.328Z,253.35
2023-03-06T21:25:05.558Z,235.44
2023-03-06T21:28:11.307Z,221.63
2023-03-06T21:31:22.197Z,226.87
2023-03-06T21:34:28.347Z,237.32
2023-03-06T21:37:35.283Z,253.95
2023-03-06T21:40:45.525Z,254.53
2023-03-06T21:43:52.106Z,255.74
2023-03-06T21:46:57.796Z,235.95
2023-03-06T21:50:04.352Z,222.24
2023-03-06T21:53:12.463Z,246.13
2023-03-06T21:56:25.486Z,248.14
2023-03-06T21:59:31.425Z,262.68
2023-03-06T22:02:38.500Z,281.73
2023-03-06T22:05:44.786Z,288.33
2023-03-06T22:08:51.855Z,294.51
2023-03-06T22:12:00.393Z,289.22
2023-03-06T22:15:09.560Z,287.65
2023-03-06T22:18:16.054Z,270.88
2023-03-06T22:21:26.057Z,260.03
2023-03-06T22:24:31.881Z,259.27
2023-03-06T22:27:41.152Z,264.61
2023-03-06T22:30:46.891Z,258.80
2023-03-06T22:33:55.343Z,252.71
2023-03-06T22:37:01.328Z,256.81
2023-03-06T22:40:09.809Z,256.37
2023-03-06T22:43:20.164Z,261.58
2023-03-06T22:46:27.974Z,278.47
2023-03-06T22:49:33.818Z,276.20
2023-03-06T22:52:40.460Z,272.43
2023-03-06T22:55:46.272Z,268.14
2023-03-06T22:58:55.585Z,257.98
2023-03-06T23:02:01.441Z,222.20
2023-03-06T23:05:09.833Z,210.66
2023-03-06T23:08:17.307Z,204.77
2023-03-06T23:11:26.001Z,208.37
2023-03-06T23:14:53.182Z,209.25
2023-03-06T23:18:18.213Z,216.86
2023-03-06T23:21:43.028Z,247.31
2023-03-06T23:25:09.745Z,263.38
2023-03-06T23:28:15.801Z,271.55
2023-03-06T23:31:28.737Z,274.74
2023-03-06T23:34:34.746Z,294.58
2023-03-06T23:37:42.830Z,294.24
2023-03-06T23:40:49.755Z,285.13
2023-03-06T23:43:56.642Z,278.62
2023-03-06T23:47:05.651Z,273.38
2023-03-06T23:50:14.203Z,277.42
2023-03-06T23:53:20.645Z,270.77
2023-03-06T23:56:27.920Z,281.84
2023-03-06T23:59:33.764Z,281.94
